sensor_id;sensor_type;location;lat;lon;timestamp;P1;durP1;ratioP1;P2;durP2;ratioP2
18445;SDS011;9352;50.888;4.466;2023-05-10T00:01:01;13.07;;;7.50;;
18445;SDS011;9352;50.888;4.466;2023-05-10T00:03:28;17.60;;;8.30;;
18445;SDS011;9352;50.888;4.466;2023-05-10T00:05:57;21.40;;;8.40;;
18445;SDS011;9352;50.888;4.466;2023-05-10T00:08:24;17.48;;;8.43;;
18445;SDS011;9352;50.888;4.466;2023-05-10T00:10:51;19.17;;;8.45;;
18445;SDS011;9352;50.888;4.466;2023-05-10T00:13:19;20.40;;;8.25;;
18445;SDS011;9352;50.888;4.466;2023-05-10T00:15:45;16.73;;;8.30;;
18445;SDS011;9352;50.888;4.466;2023-05-10T00:18:12;20.30;;;8.73;;
18445;SDS011;9352;50.888;4.466;2023-05-10T00:20:39;19.00;;;8.32;;
18445;SDS011;9352;50.888;4.466;2023-05-10T00:23:07;19.73;;;8.40;;
18445;SDS011;9352;50.888;4.466;2023-05-10T00:25:34;21.20;;;9.20;;
18445;SDS011;9352;50.888;4.466;2023-05-10T00:28:01;23.45;;;8.82;;
18445;SDS011;9352;50.888;4.466;2023-05-10T00:30:28;22.52;;;9.30;;
18445;SDS011;9352;50.888;4.466;2023-05-10T00:32:55;21.92;;;9.93;;
18445;SDS011;9352;50.888;4.466;2023-05-10T00:35:22;21.38;;;9.88;;
18445;SDS011;9352;50.888;4.466;2023-05-10T00:37:49;21.23;;;10.40;;
18445;SDS011;9352;50.888;4.466;2023-05-10T00:40:17;20.40;;;9.98;;
18445;SDS011;9352;50.888;4.466;2023-05-10T00:42:44;20.13;;;10.25;;
18445;SDS011;9352;50.888;4.466;2023-05-10T00:45:11;23.85;;;10.20;;
18445;SDS011;9352;50.888;4.466;2023-05-10T00:47:38;23.27;;;10.32;;
18445;SDS011;9352;50.888;4.466;2023-05-10T00:50:06;22.30;;;10.13;;
18445;SDS011;9352;50.888;4.466;2023-05-10T00:52:34;19.67;;;10.52;;
18445;SDS011;9352;50.888;4.466;2023-05-10T00:55:01;27.02;;;11.43;;
18445;SDS011;9352;50.888;4.466;2023-05-10T00:57:29;23.98;;;10.55;;
18445;SDS011;9352;50.888;4.466;2023-05-10T00:59:56;23.30;;;11.10;;
18445;SDS011;9352;50.888;4.466;2023-05-10T01:02:25;26.30;;;10.68;;
18445;SDS011;9352;50.888;4.466;2023-05-10T01:04:52;27.58;;;10.85;;
18445;SDS011;9352;50.888;4.466;2023-05-10T01:07:19;28.63;;;10.95;;
18445;SDS011;9352;50.888;4.466;2023-05-10T01:09:46;20.65;;;10.27;;
18445;SDS011;9352;50.888;4.466;2023-05-10T01:12:14;22.52;;;10.77;;
18445;SDS011;9352;50.888;4.466;2023-05-10T01:14:42;22.77;;;10.73;;
18445;SDS011;9352;50.888;4.466;2023-05-10T01:17:09;21.02;;;10.48;;
18445;SDS011;9352;50.888;4.466;2023-05-10T01:19:38;24.63;;;11.38;;
18445;SDS011;9352;50.888;4.466;2023-05-10T01:22:07;29.33;;;11.85;;
18445;SDS011;9352;50.888;4.466;2023-05-10T01:24:56;26.88;;;11.48;;
18445;SDS011;9352;50.888;4.466;2023-05-10T01:27:59;23.73;;;11.48;;
18445;SDS011;9352;50.888;4.466;2023-05-10T01:30:53;22.05;;;10.55;;
18445;SDS011;9352;50.888;4.466;2023-05-10T01:33:37;23.83;;;11.88;;
18445;SDS011;9352;50.888;4.466;2023-05-10T01:36:09;24.38;;;11.20;;
18445;SDS011;9352;50.888;4.466;2023-05-10T01:38:42;26.88;;;12.20;;
18445;SDS011;9352;50.888;4.466;2023-05-10T01:41:16;26.20;;;12.43;;
18445;SDS011;9352;50.888;4.466;2023-05-10T01:43:48;29.50;;;12.77;;
18445;SDS011;9352;50.888;4.466;2023-05-10T01:46:23;33.72;;;12.85;;
18445;SDS011;9352;50.888;4.466;2023-05-10T01:48:55;29.15;;;12.93;;
18445;SDS011;9352;50.888;4.466;2023-05-10T01:51:25;30.00;;;13.10;;
18445;SDS011;9352;50.888;4.466;2023-05-10T01:54:05;29.02;;;12.75;;
18445;SDS011;9352;50.888;4.466;2023-05-10T01:56:33;36.83;;;13.63;;
18445;SDS011;9352;50.888;4.466;2023-05-10T01:59:02;30.10;;;12.75;;
18445;SDS011;9352;50.888;4.466;2023-05-10T02:01:33;24.50;;;13.38;;
18445;SDS011;9352;50.888;4.466;2023-05-10T02:04:04;34.58;;;13.60;;
18445;SDS011;9352;50.888;4.466;2023-05-10T02:06:32;28.33;;;13.52;;
18445;SDS011;9352;50.888;4.466;2023-05-10T02:09:00;27.13;;;12.50;;
18445;SDS011;9352;50.888;4.466;2023-05-10T02:11:28;27.83;;;13.18;;
18445;SDS011;9352;50.888;4.466;2023-05-10T02:13:56;26.10;;;12.65;;
18445;SDS011;9352;50.888;4.466;2023-05-10T02:16:24;24.23;;;12.18;;
18445;SDS011;9352;50.888;4.466;2023-05-10T02:18:55;22.80;;;11.77;;
18445;SDS011;9352;50.888;4.466;2023-05-10T02:21:26;25.65;;;12.13;;
18445;SDS011;9352;50.888;4.466;2023-05-10T02:23:56;27.40;;;12.70;;
18445;SDS011;9352;50.888;4.466;2023-05-10T02:26:24;25.58;;;12.95;;
18445;SDS011;9352;50.888;4.466;2023-05-10T02:28:52;25.48;;;12.65;;
18445;SDS011;9352;50.888;4.466;2023-05-10T02:31:20;27.73;;;12.80;;
18445;SDS011;9352;50.888;4.466;2023-05-10T02:33:48;31.85;;;12.18;;
18445;SDS011;9352;50.888;4.466;2023-05-10T02:36:17;31.38;;;13.32;;
18445;SDS011;9352;50.888;4.466;2023-05-10T02:38:46;38.58;;;13.45;;
18445;SDS011;9352;50.888;4.466;2023-05-10T02:41:15;27.50;;;12.43;;
18445;SDS011;9352;50.888;4.466;2023-05-10T02:43:42;28.05;;;12.43;;
18445;SDS011;9352;50.888;4.466;2023-05-10T02:46:10;26.70;;;12.18;;
18445;SDS011;9352;50.888;4.466;2023-05-10T02:48:37;26.65;;;11.70;;
18445;SDS011;9352;50.888;4.466;2023-05-10T02:51:05;24.88;;;12.25;;
18445;SDS011;9352;50.888;4.466;2023-05-10T02:53:35;22.30;;;11.27;;
18445;SDS011;9352;50.888;4.466;2023-05-10T02:56:08;35.95;;;12.00;;
18445;SDS011;9352;50.888;4.466;2023-05-10T02:58:38;24.73;;;11.27;;
18445;SDS011;9352;50.888;4.466;2023-05-10T03:01:05;24.85;;;11.32;;
18445;SDS011;9352;50.888;4.466;2023-05-10T03:03:33;24.05;;;11.43;;
18445;SDS011;9352;50.888;4.466;2023-05-10T03:06:01;19.52;;;10.40;;
18445;SDS011;9352;50.888;4.466;2023-05-10T03:08:28;19.52;;;10.63;;
18445;SDS011;9352;50.888;4.466;2023-05-10T03:10:57;19.92;;;10.63;;
18445;SDS011;9352;50.888;4.466;2023-05-10T03:13:39;19.80;;;10.60;;
18445;SDS011;9352;50.888;4.466;2023-05-10T03:16:15;19.70;;;9.70;;
18445;SDS011;9352;50.888;4.466;2023-05-10T03:18:48;20.73;;;11.15;;
18445;SDS011;9352;50.888;4.466;2023-05-10T03:21:20;17.55;;;9.95;;
18445;SDS011;9352;50.888;4.466;2023-05-10T03:23:53;19.95;;;10.63;;
18445;SDS011;9352;50.888;4.466;2023-05-10T03:26:26;25.90;;;11.10;;
18445;SDS011;9352;50.888;4.466;2023-05-10T03:28:55;24.95;;;11.52;;
18445;SDS011;9352;50.888;4.466;2023-05-10T03:31:23;27.15;;;12.48;;
18445;SDS011;9352;50.888;4.466;2023-05-10T03:33:51;36.72;;;12.23;;
18445;SDS011;9352;50.888;4.466;2023-05-10T03:36:18;25.65;;;11.55;;
18445;SDS011;9352;50.888;4.466;2023-05-10T03:38:46;28.52;;;12.95;;
18445;SDS011;9352;50.888;4.466;2023-05-10T03:41:12;24.33;;;12.10;;
18445;SDS011;9352;50.888;4.466;2023-05-10T03:43:41;27.40;;;13.25;;
18445;SDS011;9352;50.888;4.466;2023-05-10T03:46:08;31.92;;;13.88;;
18445;SDS011;9352;50.888;4.466;2023-05-10T03:48:35;32.58;;;13.50;;
18445;SDS011;9352;50.888;4.466;2023-05-10T03:51:02;26.50;;;13.38;;
18445;SDS011;9352;50.888;4.466;2023-05-10T03:53:28;28.15;;;14.00;;
18445;SDS011;9352;50.888;4.466;2023-05-10T03:55:55;32.35;;;13.93;;
18445;SDS011;9352;50.888;4.466;2023-05-10T03:58:22;35.63;;;14.52;;
18445;SDS011;9352;50.888;4.466;2023-05-10T04:00:51;35.72;;;14.50;;
18445;SDS011;9352;50.888;4.466;2023-05-10T04:03:18;30.90;;;14.52;;
18445;SDS011;9352;50.888;4.466;2023-05-10T04:05:45;37.97;;;15.95;;
18445;SDS011;9352;50.888;4.466;2023-05-10T04:08:12;31.38;;;15.00;;
18445;SDS011;9352;50.888;4.466;2023-05-10T04:10:39;35.78;;;14.52;;
18445;SDS011;9352;50.888;4.466;2023-05-10T04:13:06;33.45;;;15.93;;
18445;SDS011;9352;50.888;4.466;2023-05-10T04:15:33;34.00;;;15.77;;
18445;SDS011;9352;50.888;4.466;2023-05-10T04:18:01;34.28;;;15.43;;
18445;SDS011;9352;50.888;4.466;2023-05-10T04:20:28;33.75;;;15.38;;
18445;SDS011;9352;50.888;4.466;2023-05-10T04:22:55;34.65;;;15.25;;
18445;SDS011;9352;50.888;4.466;2023-05-10T04:25:22;34.58;;;15.82;;
18445;SDS011;9352;50.888;4.466;2023-05-10T04:27:49;39.17;;;16.20;;
18445;SDS011;9352;50.888;4.466;2023-05-10T04:30:16;34.72;;;15.57;;
18445;SDS011;9352;50.888;4.466;2023-05-10T04:32:43;38.88;;;16.70;;
18445;SDS011;9352;50.888;4.466;2023-05-10T04:35:11;35.28;;;16.83;;
18445;SDS011;9352;50.888;4.466;2023-05-10T04:37:39;40.13;;;17.75;;
18445;SDS011;9352;50.888;4.466;2023-05-10T04:40:07;40.33;;;17.83;;
18445;SDS011;9352;50.888;4.466;2023-05-10T04:42:34;40.38;;;18.05;;
18445;SDS011;9352;50.888;4.466;2023-05-10T04:45:01;42.97;;;18.10;;
18445;SDS011;9352;50.888;4.466;2023-05-10T04:47:28;38.45;;;18.60;;
18445;SDS011;9352;50.888;4.466;2023-05-10T04:49:55;43.10;;;17.77;;
18445;SDS011;9352;50.888;4.466;2023-05-10T04:52:23;44.65;;;18.55;;
18445;SDS011;9352;50.888;4.466;2023-05-10T04:54:51;38.90;;;17.73;;
18445;SDS011;9352;50.888;4.466;2023-05-10T04:57:17;36.67;;;17.42;;
18445;SDS011;9352;50.888;4.466;2023-05-10T04:59:44;41.03;;;19.05;;
18445;SDS011;9352;50.888;4.466;2023-05-10T05:02:11;43.35;;;19.38;;
18445;SDS011;9352;50.888;4.466;2023-05-10T05:04:38;41.00;;;19.13;;
18445;SDS011;9352;50.888;4.466;2023-05-10T05:07:05;38.60;;;18.63;;
18445;SDS011;9352;50.888;4.466;2023-05-10T05:09:33;44.53;;;18.40;;
18445;SDS011;9352;50.888;4.466;2023-05-10T05:12:00;37.97;;;16.73;;
18445;SDS011;9352;50.888;4.466;2023-05-10T05:14:27;41.88;;;19.15;;
18445;SDS011;9352;50.888;4.466;2023-05-10T05:16:54;40.72;;;17.33;;
18445;SDS011;9352;50.888;4.466;2023-05-10T05:19:21;44.08;;;19.30;;
18445;SDS011;9352;50.888;4.466;2023-05-10T05:21:48;39.42;;;18.25;;
18445;SDS011;9352;50.888;4.466;2023-05-10T05:24:15;39.50;;;18.90;;
18445;SDS011;9352;50.888;4.466;2023-05-10T05:26:43;40.97;;;17.85;;
18445;SDS011;9352;50.888;4.466;2023-05-10T05:29:10;35.20;;;17.55;;
18445;SDS011;9352;50.888;4.466;2023-05-10T05:31:37;38.28;;;17.45;;
18445;SDS011;9352;50.888;4.466;2023-05-10T05:34:04;40.67;;;17.33;;
18445;SDS011;9352;50.888;4.466;2023-05-10T05:36:31;38.70;;;17.77;;
18445;SDS011;9352;50.888;4.466;2023-05-10T05:38:57;34.83;;;17.38;;
18445;SDS011;9352;50.888;4.466;2023-05-10T05:41:24;36.88;;;17.50;;
18445;SDS011;9352;50.888;4.466;2023-05-10T05:43:52;34.95;;;16.45;;
18445;SDS011;9352;50.888;4.466;2023-05-10T05:46:19;34.08;;;16.90;;
18445;SDS011;9352;50.888;4.466;2023-05-10T05:48:46;37.55;;;16.75;;
18445;SDS011;9352;50.888;4.466;2023-05-10T05:51:13;32.80;;;16.67;;
18445;SDS011;9352;50.888;4.466;2023-05-10T05:53:40;36.20;;;17.88;;
18445;SDS011;9352;50.888;4.466;2023-05-10T05:56:07;33.15;;;17.13;;
18445;SDS011;9352;50.888;4.466;2023-05-10T05:58:34;32.28;;;16.95;;
18445;SDS011;9352;50.888;4.466;2023-05-10T06:01:03;29.98;;;16.45;;
18445;SDS011;9352;50.888;4.466;2023-05-10T06:03:29;33.42;;;17.52;;
18445;SDS011;9352;50.888;4.466;2023-05-10T06:05:57;35.30;;;16.38;;
18445;SDS011;9352;50.888;4.466;2023-05-10T06:08:24;29.15;;;16.45;;
18445;SDS011;9352;50.888;4.466;2023-05-10T06:10:51;29.65;;;17.40;;
18445;SDS011;9352;50.888;4.466;2023-05-10T06:13:18;35.53;;;17.70;;
18445;SDS011;9352;50.888;4.466;2023-05-10T06:15:45;33.10;;;17.92;;
18445;SDS011;9352;50.888;4.466;2023-05-10T06:18:13;35.38;;;18.20;;
18445;SDS011;9352;50.888;4.466;2023-05-10T06:20:40;34.85;;;17.60;;
18445;SDS011;9352;50.888;4.466;2023-05-10T06:23:08;27.05;;;16.40;;
18445;SDS011;9352;50.888;4.466;2023-05-10T06:25:34;32.60;;;16.42;;
18445;SDS011;9352;50.888;4.466;2023-05-10T06:28:01;33.22;;;16.38;;
18445;SDS011;9352;50.888;4.466;2023-05-10T06:30:28;33.88;;;16.90;;
18445;SDS011;9352;50.888;4.466;2023-05-10T06:32:55;29.98;;;15.20;;
18445;SDS011;9352;50.888;4.466;2023-05-10T06:35:24;26.63;;;14.35;;
18445;SDS011;9352;50.888;4.466;2023-05-10T06:37:51;35.90;;;14.23;;
18445;SDS011;9352;50.888;4.466;2023-05-10T06:40:18;28.75;;;14.52;;
18445;SDS011;9352;50.888;4.466;2023-05-10T06:42:45;24.45;;;13.70;;
18445;SDS011;9352;50.888;4.466;2023-05-10T06:45:12;33.80;;;15.73;;
18445;SDS011;9352;50.888;4.466;2023-05-10T06:47:39;29.50;;;14.75;;
18445;SDS011;9352;50.888;4.466;2023-05-10T06:50:06;38.65;;;16.60;;
18445;SDS011;9352;50.888;4.466;2023-05-10T06:52:35;37.05;;;16.50;;
18445;SDS011;9352;50.888;4.466;2023-05-10T06:55:03;27.25;;;13.48;;
18445;SDS011;9352;50.888;4.466;2023-05-10T06:57:30;29.05;;;11.48;;
18445;SDS011;9352;50.888;4.466;2023-05-10T06:59:57;22.02;;;9.73;;
18445;SDS011;9352;50.888;4.466;2023-05-10T07:02:25;14.68;;;8.52;;
18445;SDS011;9352;50.888;4.466;2023-05-10T07:04:51;15.10;;;8.13;;
18445;SDS011;9352;50.888;4.466;2023-05-10T07:07:19;18.10;;;8.10;;
18445;SDS011;9352;50.888;4.466;2023-05-10T07:09:47;20.10;;;8.65;;
18445;SDS011;9352;50.888;4.466;2023-05-10T07:12:15;14.15;;;8.95;;
18445;SDS011;9352;50.888;4.466;2023-05-10T07:14:42;18.58;;;8.63;;
18445;SDS011;9352;50.888;4.466;2023-05-10T07:17:09;21.25;;;9.38;;
18445;SDS011;9352;50.888;4.466;2023-05-10T07:19:35;18.65;;;8.90;;
18445;SDS011;9352;50.888;4.466;2023-05-10T07:22:02;22.95;;;9.25;;
18445;SDS011;9352;50.888;4.466;2023-05-10T07:24:29;20.83;;;9.05;;
18445;SDS011;9352;50.888;4.466;2023-05-10T07:26:58;22.00;;;9.95;;
18445;SDS011;9352;50.888;4.466;2023-05-10T07:29:25;29.88;;;9.65;;
18445;SDS011;9352;50.888;4.466;2023-05-10T07:31:52;25.00;;;11.45;;
18445;SDS011;9352;50.888;4.466;2023-05-10T07:34:19;24.55;;;10.55;;
18445;SDS011;9352;50.888;4.466;2023-05-10T07:36:45;30.58;;;11.07;;
18445;SDS011;9352;50.888;4.466;2023-05-10T07:39:12;26.23;;;11.60;;
18445;SDS011;9352;50.888;4.466;2023-05-10T07:41:39;28.92;;;11.38;;
18445;SDS011;9352;50.888;4.466;2023-05-10T07:44:07;28.67;;;11.80;;
18445;SDS011;9352;50.888;4.466;2023-05-10T07:46:34;27.88;;;12.43;;
18445;SDS011;9352;50.888;4.466;2023-05-10T07:49:01;28.95;;;12.00;;
18445;SDS011;9352;50.888;4.466;2023-05-10T07:51:28;36.45;;;13.20;;
18445;SDS011;9352;50.888;4.466;2023-05-10T07:53:55;27.88;;;12.18;;
18445;SDS011;9352;50.888;4.466;2023-05-10T07:56:23;28.45;;;11.82;;
18445;SDS011;9352;50.888;4.466;2023-05-10T07:58:52;28.27;;;11.80;;
18445;SDS011;9352;50.888;4.466;2023-05-10T08:01:21;27.20;;;12.40;;
18445;SDS011;9352;50.888;4.466;2023-05-10T08:03:48;29.10;;;11.55;;
18445;SDS011;9352;50.888;4.466;2023-05-10T08:06:16;27.65;;;11.27;;
18445;SDS011;9352;50.888;4.466;2023-05-10T08:08:43;32.53;;;12.32;;
18445;SDS011;9352;50.888;4.466;2023-05-10T08:11:14;28.58;;;11.15;;
18445;SDS011;9352;50.888;4.466;2023-05-10T08:13:41;26.40;;;10.73;;
18445;SDS011;9352;50.888;4.466;2023-05-10T08:16:08;27.70;;;10.68;;
18445;SDS011;9352;50.888;4.466;2023-05-10T08:18:36;28.48;;;11.15;;
18445;SDS011;9352;50.888;4.466;2023-05-10T08:21:03;24.85;;;11.25;;
18445;SDS011;9352;50.888;4.466;2023-05-10T08:23:30;32.90;;;11.48;;
18445;SDS011;9352;50.888;4.466;2023-05-10T08:25:57;28.67;;;11.77;;
18445;SDS011;9352;50.888;4.466;2023-05-10T08:28:24;31.55;;;11.43;;
18445;SDS011;9352;50.888;4.466;2023-05-10T08:30:51;23.52;;;10.52;;
18445;SDS011;9352;50.888;4.466;2023-05-10T08:33:18;26.27;;;10.75;;
18445;SDS011;9352;50.888;4.466;2023-05-10T08:35:46;24.05;;;10.95;;
18445;SDS011;9352;50.888;4.466;2023-05-10T08:38:13;22.17;;;10.45;;
18445;SDS011;9352;50.888;4.466;2023-05-10T08:40:41;19.77;;;10.15;;
18445;SDS011;9352;50.888;4.466;2023-05-10T08:43:09;23.90;;;10.48;;
18445;SDS011;9352;50.888;4.466;2023-05-10T08:45:38;20.63;;;10.13;;
18445;SDS011;9352;50.888;4.466;2023-05-10T08:48:06;21.20;;;10.43;;
18445;SDS011;9352;50.888;4.466;2023-05-10T08:50:35;16.55;;;9.45;;
18445;SDS011;9352;50.888;4.466;2023-05-10T08:53:05;20.38;;;10.18;;
18445;SDS011;9352;50.888;4.466;2023-05-10T08:55:35;18.95;;;10.10;;
18445;SDS011;9352;50.888;4.466;2023-05-10T08:58:03;17.33;;;9.02;;
18445;SDS011;9352;50.888;4.466;2023-05-10T09:00:30;17.45;;;8.95;;
18445;SDS011;9352;50.888;4.466;2023-05-10T09:02:58;15.25;;;8.30;;
18445;SDS011;9352;50.888;4.466;2023-05-10T09:05:26;12.38;;;7.53;;
18445;SDS011;9352;50.888;4.466;2023-05-10T09:07:53;17.73;;;9.52;;
18445;SDS011;9352;50.888;4.466;2023-05-10T09:10:21;13.98;;;7.80;;
18445;SDS011;9352;50.888;4.466;2023-05-10T09:12:51;11.60;;;6.35;;
18445;SDS011;9352;50.888;4.466;2023-05-10T09:15:19;16.85;;;7.60;;
18445;SDS011;9352;50.888;4.466;2023-05-10T09:17:46;14.60;;;7.53;;
18445;SDS011;9352;50.888;4.466;2023-05-10T09:20:15;12.25;;;6.97;;
18445;SDS011;9352;50.888;4.466;2023-05-10T09:22:43;12.52;;;7.03;;
18445;SDS011;9352;50.888;4.466;2023-05-10T09:25:11;16.65;;;7.15;;
18445;SDS011;9352;50.888;4.466;2023-05-10T09:27:41;9.45;;;6.45;;
18445;SDS011;9352;50.888;4.466;2023-05-10T09:30:11;12.82;;;7.72;;
18445;SDS011;9352;50.888;4.466;2023-05-10T09:32:43;13.23;;;7.53;;
18445;SDS011;9352;50.888;4.466;2023-05-10T09:35:11;14.10;;;8.13;;
18445;SDS011;9352;50.888;4.466;2023-05-10T09:37:40;10.07;;;7.20;;
18445;SDS011;9352;50.888;4.466;2023-05-10T09:40:10;11.20;;;6.90;;
18445;SDS011;9352;50.888;4.466;2023-05-10T09:42:38;10.07;;;6.72;;
18445;SDS011;9352;50.888;4.466;2023-05-10T09:45:09;10.43;;;6.80;;
18445;SDS011;9352;50.888;4.466;2023-05-10T09:47:36;9.25;;;6.13;;
18445;SDS011;9352;50.888;4.466;2023-05-10T09:50:03;8.75;;;5.88;;
18445;SDS011;9352;50.888;4.466;2023-05-10T09:52:31;9.90;;;6.13;;
18445;SDS011;9352;50.888;4.466;2023-05-10T09:55:12;9.07;;;5.53;;
18445;SDS011;9352;50.888;4.466;2023-05-10T09:57:41;8.88;;;5.25;;
18445;SDS011;9352;50.888;4.466;2023-05-10T10:00:08;8.20;;;5.20;;
18445;SDS011;9352;50.888;4.466;2023-05-10T10:02:36;7.72;;;5.05;;
18445;SDS011;9352;50.888;4.466;2023-05-10T10:05:03;5.90;;;5.10;;
18445;SDS011;9352;50.888;4.466;2023-05-10T10:07:32;7.40;;;5.20;;
18445;SDS011;9352;50.888;4.466;2023-05-10T10:10:00;5.88;;;5.28;;
18445;SDS011;9352;50.888;4.466;2023-05-10T10:12:27;6.60;;;4.88;;
18445;SDS011;9352;50.888;4.466;2023-05-10T10:14:55;7.05;;;4.93;;
18445;SDS011;9352;50.888;4.466;2023-05-10T10:17:23;8.18;;;4.68;;
18445;SDS011;9352;50.888;4.466;2023-05-10T10:19:54;10.40;;;5.28;;
18445;SDS011;9352;50.888;4.466;2023-05-10T10:22:23;5.78;;;4.93;;
18445;SDS011;9352;50.888;4.466;2023-05-10T10:24:50;7.60;;;5.38;;
18445;SDS011;9352;50.888;4.466;2023-05-10T10:27:19;10.85;;;5.40;;
18445;SDS011;9352;50.888;4.466;2023-05-10T10:29:59;5.53;;;4.90;;
18445;SDS011;9352;50.888;4.466;2023-05-10T10:32:35;8.13;;;5.43;;
18445;SDS011;9352;50.888;4.466;2023-05-10T10:35:13;12.18;;;6.03;;
18445;SDS011;9352;50.888;4.466;2023-05-10T10:37:45;12.98;;;7.22;;
18445;SDS011;9352;50.888;4.466;2023-05-10T10:40:22;6.20;;;5.43;;
18445;SDS011;9352;50.888;4.466;2023-05-10T10:42:51;7.80;;;5.78;;
18445;SDS011;9352;50.888;4.466;2023-05-10T10:45:20;10.77;;;5.20;;
18445;SDS011;9352;50.888;4.466;2023-05-10T10:47:48;6.85;;;5.43;;
18445;SDS011;9352;50.888;4.466;2023-05-10T10:50:16;10.77;;;5.75;;
18445;SDS011;9352;50.888;4.466;2023-05-10T10:52:43;8.98;;;5.40;;
18445;SDS011;9352;50.888;4.466;2023-05-10T10:55:13;6.50;;;5.20;;
18445;SDS011;9352;50.888;4.466;2023-05-10T10:57:43;7.18;;;4.80;;
18445;SDS011;9352;50.888;4.466;2023-05-10T11:00:22;5.30;;;4.75;;
18445;SDS011;9352;50.888;4.466;2023-05-10T11:02:51;5.53;;;4.82;;
18445;SDS011;9352;50.888;4.466;2023-05-10T11:08:11;9.07;;;5.15;;
18445;SDS011;9352;50.888;4.466;2023-05-10T11:10:48;6.50;;;4.80;;
18445;SDS011;9352;50.888;4.466;2023-05-10T11:13:32;6.03;;;4.50;;
18445;SDS011;9352;50.888;4.466;2023-05-10T11:16:10;5.07;;;4.55;;
18445;SDS011;9352;50.888;4.466;2023-05-10T11:18:53;6.22;;;4.00;;
18445;SDS011;9352;50.888;4.466;2023-05-10T11:21:22;5.03;;;4.45;;
18445;SDS011;9352;50.888;4.466;2023-05-10T11:23:49;7.82;;;4.40;;
18445;SDS011;9352;50.888;4.466;2023-05-10T11:26:21;6.72;;;4.57;;
18445;SDS011;9352;50.888;4.466;2023-05-10T11:28:50;8.40;;;4.53;;
18445;SDS011;9352;50.888;4.466;2023-05-10T11:31:20;5.85;;;4.28;;
18445;SDS011;9352;50.888;4.466;2023-05-10T11:33:48;5.63;;;4.22;;
18445;SDS011;9352;50.888;4.466;2023-05-10T11:36:18;6.28;;;4.32;;
18445;SDS011;9352;50.888;4.466;2023-05-10T11:38:47;5.00;;;4.50;;
18445;SDS011;9352;50.888;4.466;2023-05-10T11:41:16;9.07;;;4.88;;
18445;SDS011;9352;50.888;4.466;2023-05-10T11:43:47;8.55;;;4.63;;
18445;SDS011;9352;50.888;4.466;2023-05-10T11:46:16;9.82;;;5.35;;
18445;SDS011;9352;50.888;4.466;2023-05-10T11:48:48;10.05;;;5.13;;
18445;SDS011;9352;50.888;4.466;2023-05-10T11:51:19;5.13;;;4.20;;
18445;SDS011;9352;50.888;4.466;2023-05-10T11:53:47;5.05;;;4.40;;
18445;SDS011;9352;50.888;4.466;2023-05-10T11:56:15;5.43;;;4.43;;
18445;SDS011;9352;50.888;4.466;2023-05-10T11:58:42;4.93;;;4.40;;
18445;SDS011;9352;50.888;4.466;2023-05-10T12:01:09;5.00;;;4.25;;
18445;SDS011;9352;50.888;4.466;2023-05-10T12:03:36;6.40;;;3.97;;
18445;SDS011;9352;50.888;4.466;2023-05-10T12:06:06;9.15;;;4.35;;
18445;SDS011;9352;50.888;4.466;2023-05-10T12:08:33;4.40;;;4.00;;
18445;SDS011;9352;50.888;4.466;2023-05-10T12:11:04;6.68;;;4.28;;
18445;SDS011;9352;50.888;4.466;2023-05-10T12:13:32;6.80;;;4.60;;
18445;SDS011;9352;50.888;4.466;2023-05-10T12:16:12;5.68;;;5.05;;
18445;SDS011;9352;50.888;4.466;2023-05-10T12:18:40;5.43;;;4.85;;
18445;SDS011;9352;50.888;4.466;2023-05-10T12:21:09;7.18;;;5.40;;
18445;SDS011;9352;50.888;4.466;2023-05-10T12:23:36;6.57;;;5.60;;
18445;SDS011;9352;50.888;4.466;2023-05-10T12:26:03;7.38;;;5.40;;
18445;SDS011;9352;50.888;4.466;2023-05-10T12:28:31;8.10;;;4.82;;
18445;SDS011;9352;50.888;4.466;2023-05-10T12:30:59;5.88;;;4.85;;
18445;SDS011;9352;50.888;4.466;2023-05-10T12:33:26;4.85;;;4.35;;
18445;SDS011;9352;50.888;4.466;2023-05-10T12:35:53;5.00;;;4.20;;
18445;SDS011;9352;50.888;4.466;2023-05-10T12:38:26;6.45;;;4.65;;
18445;SDS011;9352;50.888;4.466;2023-05-10T12:40:55;4.90;;;4.20;;
18445;SDS011;9352;50.888;4.466;2023-05-10T12:43:23;6.50;;;4.47;;
18445;SDS011;9352;50.888;4.466;2023-05-10T12:45:50;4.68;;;4.22;;
18445;SDS011;9352;50.888;4.466;2023-05-10T12:48:17;4.97;;;4.25;;
18445;SDS011;9352;50.888;4.466;2023-05-10T12:50:47;5.07;;;4.57;;
18445;SDS011;9352;50.888;4.466;2023-05-10T12:53:15;5.47;;;4.97;;
18445;SDS011;9352;50.888;4.466;2023-05-10T12:55:44;4.72;;;4.30;;
18445;SDS011;9352;50.888;4.466;2023-05-10T12:58:14;4.80;;;4.40;;
18445;SDS011;9352;50.888;4.466;2023-05-10T13:00:45;5.25;;;4.40;;
18445;SDS011;9352;50.888;4.466;2023-05-10T13:03:16;9.50;;;5.07;;
18445;SDS011;9352;50.888;4.466;2023-05-10T13:05:50;6.03;;;4.30;;
18445;SDS011;9352;50.888;4.466;2023-05-10T13:08:20;7.68;;;5.47;;
18445;SDS011;9352;50.888;4.466;2023-05-10T13:10:48;6.45;;;5.30;;
18445;SDS011;9352;50.888;4.466;2023-05-10T13:13:16;7.80;;;5.20;;
18445;SDS011;9352;50.888;4.466;2023-05-10T13:15:43;5.30;;;4.80;;
18445;SDS011;9352;50.888;4.466;2023-05-10T13:18:10;9.20;;;4.80;;
18445;SDS011;9352;50.888;4.466;2023-05-10T13:20:37;7.25;;;4.90;;
18445;SDS011;9352;50.888;4.466;2023-05-10T13:23:04;6.68;;;5.00;;
18445;SDS011;9352;50.888;4.466;2023-05-10T13:25:31;7.38;;;5.40;;
18445;SDS011;9352;50.888;4.466;2023-05-10T13:28:00;9.57;;;5.20;;
18445;SDS011;9352;50.888;4.466;2023-05-10T13:30:27;4.80;;;4.40;;
18445;SDS011;9352;50.888;4.466;2023-05-10T13:32:56;5.00;;;4.50;;
18445;SDS011;9352;50.888;4.466;2023-05-10T13:35:23;5.00;;;4.20;;
18445;SDS011;9352;50.888;4.466;2023-05-10T13:37:50;8.88;;;4.28;;
18445;SDS011;9352;50.888;4.466;2023-05-10T13:40:18;6.43;;;4.40;;
18445;SDS011;9352;50.888;4.466;2023-05-10T13:42:45;6.55;;;4.15;;
18445;SDS011;9352;50.888;4.466;2023-05-10T13:45:14;6.03;;;4.28;;
18445;SDS011;9352;50.888;4.466;2023-05-10T13:47:41;4.28;;;3.70;;
18445;SDS011;9352;50.888;4.466;2023-05-10T13:50:08;5.18;;;4.40;;
18445;SDS011;9352;50.888;4.466;2023-05-10T13:52:35;6.18;;;3.92;;
18445;SDS011;9352;50.888;4.466;2023-05-10T13:55:03;4.97;;;4.25;;
18445;SDS011;9352;50.888;4.466;2023-05-10T13:57:30;9.35;;;5.50;;
18445;SDS011;9352;50.888;4.466;2023-05-10T13:59:59;7.15;;;5.40;;
18445;SDS011;9352;50.888;4.466;2023-05-10T14:02:27;7.65;;;5.20;;
18445;SDS011;9352;50.888;4.466;2023-05-10T14:04:54;8.35;;;5.18;;
18445;SDS011;9352;50.888;4.466;2023-05-10T14:07:22;10.45;;;5.60;;
18445;SDS011;9352;50.888;4.466;2023-05-10T14:09:49;10.18;;;5.47;;
18445;SDS011;9352;50.888;4.466;2023-05-10T14:12:16;6.50;;;5.05;;
18445;SDS011;9352;50.888;4.466;2023-05-10T14:14:43;7.88;;;5.07;;
18445;SDS011;9352;50.888;4.466;2023-05-10T14:17:10;8.52;;;4.85;;
18445;SDS011;9352;50.888;4.466;2023-05-10T14:19:38;7.78;;;5.63;;
18445;SDS011;9352;50.888;4.466;2023-05-10T14:22:06;10.65;;;6.82;;
18445;SDS011;9352;50.888;4.466;2023-05-10T14:24:33;23.02;;;7.90;;
18445;SDS011;9352;50.888;4.466;2023-05-10T14:27:00;14.07;;;7.07;;
18445;SDS011;9352;50.888;4.466;2023-05-10T14:29:27;12.55;;;8.65;;
18445;SDS011;9352;50.888;4.466;2023-05-10T14:31:57;12.23;;;9.20;;
18445;SDS011;9352;50.888;4.466;2023-05-10T14:34:25;13.73;;;9.15;;
18445;SDS011;9352;50.888;4.466;2023-05-10T14:36:59;11.45;;;8.80;;
18445;SDS011;9352;50.888;4.466;2023-05-10T14:39:32;12.75;;;8.93;;
18445;SDS011;9352;50.888;4.466;2023-05-10T14:42:03;12.98;;;9.15;;
18445;SDS011;9352;50.888;4.466;2023-05-10T14:44:32;14.38;;;9.70;;
18445;SDS011;9352;50.888;4.466;2023-05-10T14:47:07;14.63;;;9.20;;
18445;SDS011;9352;50.888;4.466;2023-05-10T14:49:38;19.88;;;10.68;;
18445;SDS011;9352;50.888;4.466;2023-05-10T14:52:07;13.73;;;9.05;;
18445;SDS011;9352;50.888;4.466;2023-05-10T14:54:34;13.32;;;8.52;;
18445;SDS011;9352;50.888;4.466;2023-05-10T14:57:00;17.42;;;9.18;;